Date,TemperatureHighF,TemperatureAvgF,TemperatureLowF,DewpointHighF,DewpointAvgF,DewpointLowF,HumidityHigh,HumidityAvg,HumidityLow,PressureMaxIn,PressureMinIn,WindSpeedMaxMPH,WindSpeedAvgMPH,GustSpeedMaxMPH,PrecipitationSumIn
2013-8-1,75,60,54,54,47,37,93,65,35,29.95,29.74,7,0,11,0.62
2013-8-2,69,57,48,59,50,42,95,79,39,30.01,29.75,5,0,7,1.11
2013-8-3,78,60,48,52,47,42,89,65,32,30.05,29.89,9,0,10,0.01
2013-8-4,83,65,51,51,44,33,81,52,18,30.00,29.82,9,0,9,0.00
2013-8-5,86,67,54,49,41,33,70,43,17,29.90,29.71,11,0,12,0.00
2013-8-6,87,65,51,52,45,36,82,52,19,29.89,29.80,6,0,9,0.00
2013-8-7,90,68,53,47,40,28,71,42,12,29.90,29.71,13,0,14,0.00
2013-8-8,81,65,52,54,47,41,80,54,27,29.93,29.77,11,0,11,0.00
2013-8-9,79,64,52,57,51,47,85,64,39,30.01,29.84,8,0,8,0.03
2013-8-10,81,64,51,56,48,31,87,60,23,29.97,29.81,8,0,9,0.00
2013-8-11,81,66,56,51,44,36,68,47,27,29.95,29.84,6,0,10,0.00
2013-8-12,83,70,52,49,44,41,74,43,27,29.96,29.84,6,1,10,0.00
2013-8-13,82,82,82,46,46,46,28,28,28,29.85,29.85,1,1,4,0.00
2013-8-14,82,82,82,46,46,46,28,28,28,29.85,29.85,1,1,4,0.00
2013-8-15,82,82,82,46,46,46,28,28,28,29.85,29.85,1,1,4,0.00
2013-8-16,82,82,82,46,46,46,28,28,28,29.85,29.85,1,1,4,0.00
2013-8-17,82,82,82,46,46,46,28,28,28,29.85,29.85,1,1,4,0.00
2013-8-18,94,81,66,46,43,35,37,26,14,29.85,29.68,11,1,11,0.00
2013-8-19,98,73,56,43,35,22,51,29,9,29.88,29.64,11,1,15,0.00
2013-8-20,95,71,57,44,36,31,52,30,12,29.86,29.65,9,0,12,0.00
2013-8-21,85,67,53,38,34,28,55,31,14,29.99,29.80,8,0,9,0.00
2013-8-22,85,68,54,52,41,33,58,39,23,29.96,29.71,19,0,19,0.00
2013-8-23,82,70,60,58,46,37,81,45,24,29.78,29.59,12,0,12,0.02
2013-8-24,77,65,54,62,48,39,86,55,31,29.80,29.67,10,0,13,0.18
2013-8-25,91,68,56,49,45,31,69,47,13,29.86,29.63,10,0,13,0.00
2013-8-26,84,66,54,60,46,38,84,49,24,29.91,29.71,13,0,13,0.05
2013-8-27,91,69,54,52,44,34,75,47,17,29.92,29.71,9,0,10,0.00
2013-8-28,84,64,56,62,49,41,92,59,27,29.93,29.70,10,0,12,0.16
2013-8-29,91,68,53,58,50,40,89,59,18,30.00,29.73,7,0,11,0.00
2013-8-30,89,68,55,50,45,36,75,49,18,29.93,29.74,10,0,12,0.00
2013-8-31,82,65,52,44,39,32,66,41,19,30.03,29.86,9,0,11,0.00